Startpagina
METAR-TAF:

METAR-TAF

Vliegvelden :

Portage Glacier, Alaska, Verenigde Staten

breedte: 60-47N, lengte: 148-50W, hoogte: 29 m

Actueel weer

Dit bericht is 1 uur en het 1 minuten geleden gemaakt, om 04:53 UTC
Weinig wind
Temperatuur 7°C
Vochtigheid 93%
Druk 1022 hPa
Zicht: 16.1 km
Weinig wolken op 10000 ft

METAR: PATO 190453Z AUTO 00000KT 10SM FEW100 07/06 A3019 RMK AO2 SLP223 T00720056 TSNO

Tijdstip: 21:54 (05:54 UTC)


TAF: ontbreekt

Waarnemingen en weersverwachtingen van meer dan 4000 vliegvelden (METAR en TAF).

De beschikbare stations zijn de gele en rode punten op de kaart.

Ga met uw muis naar het station om de naam te zien.

Klik dan om waarnemingen en weersverwachtingen te zien.

kaart wijzigen: klik op de groene knoppen met een zwart kruis om in te zoomen, op de groene knop met een streepje om uit te zoomen of op de groene pijlen voor aangrenzende kaarten.


METAR-TAF: